createdAt,value
2018-09-23T00:00:45.657Z,11.14
2018-09-23T00:01:45.675Z,11.24
2018-09-23T00:02:45.872Z,11.25
2018-09-23T00:03:45.588Z,11.14
2018-09-23T00:04:45.549Z,11.26
2018-09-23T00:05:45.624Z,11.21
2018-09-23T00:06:45.631Z,11.19
2018-09-23T00:07:45.626Z,11.33
2018-09-23T00:08:45.772Z,11.3
2018-09-23T00:09:45.674Z,11.33
2018-09-23T00:10:45.558Z,11.21
2018-09-23T00:11:45.802Z,11.16
2018-09-23T00:12:45.558Z,11.25
2018-09-23T00:13:45.712Z,11.24
2018-09-23T00:14:45.754Z,11.17
2018-09-23T00:15:45.584Z,11.24
2018-09-23T00:16:45.581Z,11.28
2018-09-23T00:17:45.582Z,11.41
2018-09-23T00:18:45.663Z,11.22
2018-09-23T00:19:45.819Z,11.08
2018-09-23T00:20:45.536Z,11.16
2018-09-23T00:21:45.787Z,11.1
2018-09-23T00:22:45.810Z,11.18
2018-09-23T00:23:45.547Z,11.11
2018-09-23T00:24:45.547Z,11.11
2018-09-23T00:25:45.663Z,11.05
2018-09-23T00:26:45.572Z,11.13
2018-09-23T00:27:45.652Z,11.09
2018-09-23T00:28:45.613Z,11.07
2018-09-23T00:29:45.644Z,11.11
2018-09-23T00:30:45.548Z,11.12
2018-09-23T00:31:45.591Z,11.01
2018-09-23T00:32:45.595Z,11.14
2018-09-23T00:33:45.515Z,11.16
2018-09-23T00:34:45.536Z,11.25
2018-09-23T00:35:45.545Z,11.26
2018-09-23T00:36:45.527Z,11.33
2018-09-23T00:37:45.696Z,11.29
2018-09-23T00:38:45.514Z,11.34
2018-09-23T00:39:45.610Z,11.23
2018-09-23T00:40:45.515Z,11.15
2018-09-23T00:41:45.519Z,11.1
2018-09-23T00:42:45.525Z,11.38
2018-09-23T00:43:45.535Z,11.35
2018-09-23T00:44:45.499Z,11.32
2018-09-23T00:45:45.553Z,11.43
2018-09-23T00:46:45.501Z,11.37
2018-09-23T00:47:45.493Z,11.31
2018-09-23T00:48:45.494Z,11.44
2018-09-23T00:49:45.501Z,11.47
2018-09-23T00:50:45.532Z,11.53
2018-09-23T00:51:45.494Z,11.61
2018-09-23T00:52:45.524Z,11.59
2018-09-23T00:53:45.631Z,11.55
2018-09-23T00:54:45.616Z,11.48
2018-09-23T00:55:45.906Z,11.39
2018-09-23T00:56:45.540Z,11.34
2018-09-23T00:57:45.612Z,11.33
2018-09-23T00:58:45.504Z,11.32
2018-09-23T00:59:45.485Z,11.33
2018-09-23T01:00:45.672Z,11.77
2018-09-23T01:01:45.509Z,11.84
2018-09-23T01:02:45.481Z,11.66
2018-09-23T01:03:45.573Z,11.53
2018-09-23T01:04:45.512Z,11.51
2018-09-23T01:05:45.714Z,11.55
2018-09-23T01:06:45.484Z,11.88
2018-09-23T01:07:45.606Z,11.75
2018-09-23T01:08:45.511Z,11.64
2018-09-23T01:09:45.661Z,11.65
2018-09-23T01:10:46.060Z,11.55
2018-09-23T01:11:45.695Z,11.71
2018-09-23T01:12:45.565Z,11.68
2018-09-23T01:13:45.506Z,11.55
2018-09-23T01:14:45.615Z,11.56
2018-09-23T01:15:45.488Z,11.59
2018-09-23T01:16:45.623Z,11.52
2018-09-23T01:17:45.544Z,11.54
2018-09-23T01:18:45.448Z,11.6
2018-09-23T01:19:45.456Z,11.52
2018-09-23T01:20:45.564Z,11.51
2018-09-23T01:21:45.499Z,11.91
2018-09-23T01:22:45.535Z,11.7
2018-09-23T01:23:45.475Z,11.64
2018-09-23T01:24:45.450Z,11.52
2018-09-23T01:25:45.453Z,11.69
2018-09-23T01:26:45.476Z,11.57
2018-09-23T01:27:45.521Z,11.63
2018-09-23T01:28:45.500Z,11.65
2018-09-23T01:29:45.481Z,11.53
2018-09-23T01:30:45.568Z,11.59
2018-09-23T01:31:45.467Z,11.58
2018-09-23T01:32:45.506Z,11.56
2018-09-23T01:33:45.653Z,11.45
2018-09-23T01:34:45.465Z,11.47
2018-09-23T01:35:45.524Z,11.55
2018-09-23T01:36:45.519Z,11.48
2018-09-23T01:37:45.451Z,11.42
2018-09-23T01:38:45.635Z,11.39
2018-09-23T01:39:45.485Z,11.41
2018-09-23T01:40:45.493Z,11.5
2018-09-23T01:41:46.143Z,11.5
2018-09-23T01:42:45.536Z,11.53
2018-09-23T01:43:45.457Z,11.58
2018-09-23T01:44:45.552Z,11.54
2018-09-23T01:45:45.425Z,11.54
2018-09-23T01:46:45.455Z,11.6
2018-09-23T01:47:45.419Z,11.57
2018-09-23T01:48:46.309Z,11.49
2018-09-23T01:49:45.484Z,11.56
2018-09-23T01:50:45.494Z,11.54
2018-09-23T01:51:45.423Z,11.44
2018-09-23T01:52:45.547Z,11.49
2018-09-23T01:53:45.413Z,11.49
2018-09-23T01:54:45.417Z,11.44
2018-09-23T01:55:45.582Z,11.58
2018-09-23T01:56:45.426Z,11.58
2018-09-23T01:57:45.476Z,11.52
2018-09-23T01:58:45.420Z,11.46
2018-09-23T01:59:45.669Z,11.33
2018-09-23T02:00:45.414Z,11.37
2018-09-23T02:01:45.606Z,11.38
2018-09-23T02:02:45.414Z,11.38
2018-09-23T02:03:45.458Z,11.35
2018-09-23T02:04:45.397Z,11.38
2018-09-23T02:05:45.411Z,11.39
2018-09-23T02:06:45.407Z,11.37
2018-09-23T02:07:45.484Z,11.37
2018-09-23T02:08:45.416Z,11.36
2018-09-23T02:09:45.376Z,11.38
2018-09-23T02:10:45.473Z,11.36
2018-09-23T02:11:45.417Z,11.44
2018-09-23T02:12:45.425Z,11.42
2018-09-23T02:13:45.416Z,11.34
2018-09-23T02:14:45.458Z,11.43
2018-09-23T02:15:45.504Z,11.37
2018-09-23T02:16:45.443Z,11.39
2018-09-23T02:17:45.492Z,11.39
2018-09-23T02:18:45.875Z,11.3
2018-09-23T02:19:45.398Z,11.33
2018-09-23T02:20:45.437Z,11.3
2018-09-23T02:21:45.417Z,11.28
2018-09-23T02:22:45.554Z,11.31
2018-09-23T02:23:45.637Z,11.37
2018-09-23T02:24:45.383Z,11.35
2018-09-23T02:25:45.415Z,11.33
2018-09-23T02:26:45.379Z,11.27
2018-09-23T02:27:45.941Z,11.4
2018-09-23T02:28:46.145Z,11.3
2018-09-23T02:29:45.389Z,11.32
2018-09-23T02:30:45.364Z,11.19
2018-09-23T02:31:45.382Z,11.19
2018-09-23T02:32:45.423Z,11.29
2018-09-23T02:33:45.501Z,11.2
2018-09-23T02:34:45.535Z,11.21
2018-09-23T02:35:45.358Z,11.24
2018-09-23T02:36:45.347Z,11.25
2018-09-23T02:37:45.390Z,11.26
2018-09-23T02:38:45.377Z,11.21
2018-09-23T02:39:45.575Z,11.22
2018-09-23T02:40:45.347Z,11.25
2018-09-23T02:41:45.384Z,11.28
2018-09-23T02:42:45.519Z,11.2
2018-09-23T02:43:45.372Z,11.31
2018-09-23T02:44:45.402Z,11.24
2018-09-23T02:45:45.411Z,11.23
2018-09-23T02:46:45.412Z,11.22
2018-09-23T02:47:45.493Z,11.15
2018-09-23T02:48:45.319Z,11.28
2018-09-23T02:49:45.367Z,11.37
2018-09-23T02:50:45.486Z,11.26
2018-09-23T02:51:45.340Z,11.27
2018-09-23T02:52:45.379Z,11.23
2018-09-23T02:53:45.438Z,11.25
2018-09-23T02:54:45.446Z,11.28
2018-09-23T02:55:45.327Z,11.27
2018-09-23T02:56:45.375Z,11.33
2018-09-23T02:57:45.362Z,11.33
2018-09-23T02:58:45.505Z,11.3
2018-09-23T02:59:45.531Z,11.26
2018-09-23T03:00:45.415Z,11.28
2018-09-23T03:01:45.320Z,11.26
2018-09-23T03:02:45.590Z,11.24
2018-09-23T03:03:45.340Z,11.15
2018-09-23T03:04:45.713Z,11.24
2018-09-23T03:05:45.702Z,11.3
2018-09-23T03:06:45.322Z,11.29
2018-09-23T03:07:45.939Z,11.26
2018-09-23T03:08:45.475Z,11.18
2018-09-23T03:09:45.330Z,11.29
2018-09-23T03:10:45.352Z,11.3
2018-09-23T03:11:45.341Z,11.29
2018-09-23T03:12:45.473Z,11.24
2018-09-23T03:13:45.472Z,11.28
2018-09-23T03:14:45.307Z,11.28
2018-09-23T03:15:45.308Z,11.32
2018-09-23T03:16:45.286Z,11.28
2018-09-23T03:17:45.369Z,11.33
2018-09-23T03:18:45.329Z,11.34
2018-09-23T03:19:45.290Z,11.33
2018-09-23T03:20:45.318Z,11.38
2018-09-23T03:21:45.329Z,11.34
2018-09-23T03:22:45.339Z,11.33
2018-09-23T03:23:45.364Z,11.23
2018-09-23T03:24:45.338Z,11.37
2018-09-23T03:25:45.345Z,11.36
2018-09-23T03:26:45.365Z,11.37
2018-09-23T03:27:45.337Z,11.37
2018-09-23T03:28:45.307Z,11.38
2018-09-23T03:29:45.323Z,11.33
2018-09-23T03:30:45.336Z,11.35
2018-09-23T03:31:45.306Z,11.36
2018-09-23T03:32:45.289Z,11.37
2018-09-23T03:33:45.282Z,11.32
2018-09-23T03:34:45.307Z,11.35
2018-09-23T03:35:45.328Z,11.38
2018-09-23T03:36:45.296Z,11.39
2018-09-23T03:37:45.450Z,11.36
2018-09-23T03:38:45.279Z,11.33
2018-09-23T03:39:45.489Z,11.27
2018-09-23T03:40:45.315Z,11.24
2018-09-23T03:41:45.325Z,11.28
2018-09-23T03:42:45.673Z,11.34
2018-09-23T03:43:45.528Z,11.34
2018-09-23T03:44:45.284Z,11.36
2018-09-23T03:45:45.343Z,11.34
2018-09-23T03:46:45.289Z,11.32
2018-09-23T03:47:45.347Z,11.4
2018-09-23T03:48:45.402Z,11.32
2018-09-23T03:49:45.276Z,11.26
2018-09-23T03:50:45.435Z,11.28
2018-09-23T03:51:45.286Z,11.35
2018-09-23T03:52:45.344Z,11.34
2018-09-23T03:53:46.636Z,11.33
2018-09-23T03:54:45.301Z,11.44
2018-09-23T03:55:45.307Z,11.4
2018-09-23T03:56:45.295Z,11.47
2018-09-23T03:57:45.275Z,11.43
2018-09-23T03:58:45.395Z,11.47
2018-09-23T03:59:45.306Z,11.38
2018-09-23T04:00:45.296Z,11.44
2018-09-23T04:01:45.254Z,11.41
2018-09-23T04:02:45.250Z,11.43
2018-09-23T04:03:45.314Z,11.43
2018-09-23T04:04:45.301Z,11.42
2018-09-23T04:05:45.368Z,11.41
2018-09-23T04:06:45.407Z,11.36
2018-09-23T04:07:45.332Z,11.35
2018-09-23T04:08:45.766Z,11.44
2018-09-23T04:09:45.269Z,11.4
2018-09-23T04:10:45.283Z,11.41
2018-09-23T04:11:45.454Z,11.42
2018-09-23T04:12:45.421Z,11.32
2018-09-23T04:13:45.459Z,11.4
2018-09-23T04:14:45.267Z,11.39
2018-09-23T04:15:45.245Z,11.38
2018-09-23T04:16:45.239Z,11.38
2018-09-23T04:17:45.243Z,11.37
2018-09-23T04:18:45.411Z,11.36
2018-09-23T04:19:45.229Z,11.41
2018-09-23T04:20:45.276Z,11.4
2018-09-23T04:21:45.254Z,11.42
2018-09-23T04:22:45.318Z,11.49
2018-09-23T04:23:45.343Z,11.45
2018-09-23T04:24:45.302Z,11.46
2018-09-23T04:25:45.962Z,11.44
2018-09-23T04:26:45.356Z,11.4
2018-09-23T04:27:45.345Z,11.4
2018-09-23T04:28:45.277Z,11.41
2018-09-23T04:29:45.304Z,11.43
2018-09-23T04:30:45.209Z,11.4
2018-09-23T04:31:45.462Z,11.4
2018-09-23T04:32:45.483Z,11.41
2018-09-23T04:33:45.284Z,11.38
2018-09-23T04:34:45.525Z,11.38
2018-09-23T04:35:45.286Z,11.42
2018-09-23T04:36:45.240Z,11.49
2018-09-23T04:37:45.216Z,11.44
2018-09-23T04:38:45.372Z,11.5
2018-09-23T04:39:45.235Z,11.45
2018-09-23T04:40:45.212Z,11.45
2018-09-23T04:41:45.492Z,11.46
2018-09-23T04:42:45.216Z,11.47
2018-09-23T04:43:45.189Z,11.52
2018-09-23T04:44:45.491Z,11.45
2018-09-23T04:45:45.238Z,11.43
2018-09-23T04:46:45.246Z,11.45
2018-09-23T04:47:45.180Z,11.42
2018-09-23T04:48:45.170Z,11.53
2018-09-23T04:49:45.203Z,11.49
2018-09-23T04:50:45.203Z,11.51
2018-09-23T04:51:45.178Z,11.48
2018-09-23T04:52:45.223Z,11.46
2018-09-23T04:53:45.448Z,11.48
2018-09-23T04:54:45.209Z,11.46
2018-09-23T04:55:45.215Z,11.41
2018-09-23T04:56:45.185Z,11.53
2018-09-23T04:57:45.233Z,11.55
2018-09-23T04:58:45.177Z,11.55
2018-09-23T04:59:45.191Z,11.54
2018-09-23T05:00:45.826Z,11.51
2018-09-23T05:01:45.362Z,11.55
2018-09-23T05:02:45.231Z,11.54
2018-09-23T05:03:45.189Z,11.5
2018-09-23T05:04:45.226Z,11.56
2018-09-23T05:05:45.294Z,11.54
2018-09-23T05:06:45.396Z,11.58
2018-09-23T05:07:45.198Z,11.65
2018-09-23T05:08:48.947Z,11.59
2018-09-23T05:09:45.167Z,11.65
2018-09-23T05:10:45.388Z,11.64
2018-09-23T05:11:46.010Z,11.64
2018-09-23T05:12:45.254Z,11.68
2018-09-23T05:13:45.197Z,11.67
2018-09-23T05:14:45.179Z,11.8
2018-09-23T05:15:45.183Z,11.79
2018-09-23T05:16:45.158Z,11.79
2018-09-23T05:17:45.159Z,11.82
2018-09-23T05:18:45.750Z,11.85
2018-09-23T05:19:45.512Z,11.85
2018-09-23T05:20:45.221Z,11.81
2018-09-23T05:21:45.126Z,11.89
2018-09-23T05:22:45.273Z,11.87
2018-09-23T05:23:45.235Z,11.89
2018-09-23T05:24:45.212Z,11.95
2018-09-23T05:25:45.197Z,11.98
2018-09-23T05:26:45.299Z,11.99
2018-09-23T05:27:45.168Z,12.01
2018-09-23T05:28:45.384Z,12.04
2018-09-23T05:29:45.109Z,12.1
2018-09-23T05:30:45.112Z,12.07
2018-09-23T05:31:45.288Z,12.07
2018-09-23T05:32:45.198Z,12.01
2018-09-23T05:33:45.132Z,12.08
2018-09-23T05:34:45.364Z,12.09
2018-09-23T05:35:45.264Z,12.1
2018-09-23T05:36:45.205Z,12.07
2018-09-23T05:37:45.130Z,12.16
2018-09-23T05:38:45.139Z,12.2
2018-09-23T05:39:45.177Z,12.15
2018-09-23T05:40:49.421Z,12.21
2018-09-23T05:41:45.141Z,12.11
2018-09-23T05:42:45.171Z,12.18
2018-09-23T05:43:45.150Z,12.16
2018-09-23T05:44:45.265Z,12.18
2018-09-23T05:45:45.190Z,12.22
2018-09-23T05:46:45.218Z,12.2
2018-09-23T05:47:45.136Z,12.25
2018-09-23T05:48:45.229Z,12.14
2018-09-23T05:49:45.119Z,12.23
2018-09-23T05:50:45.079Z,12.19
2018-09-23T05:51:45.709Z,12.19
2018-09-23T05:52:45.234Z,12.22
2018-09-23T05:53:45.150Z,12.18
2018-09-23T05:54:45.130Z,12.2
2018-09-23T05:55:45.289Z,12.31
2018-09-23T05:56:45.141Z,12.34
2018-09-23T05:57:45.177Z,12.26
2018-09-23T05:58:45.197Z,12.25
2018-09-23T05:59:45.085Z,12.3
2018-09-23T06:00:45.114Z,12.45
2018-09-23T06:01:45.370Z,12.41
2018-09-23T06:02:45.140Z,12.42
2018-09-23T06:03:45.159Z,12.34
2018-09-23T06:04:45.060Z,12.42
2018-09-23T06:05:45.166Z,12.65
2018-09-23T06:06:45.073Z,12.54
2018-09-23T06:07:45.182Z,12.6
2018-09-23T06:08:45.386Z,12.58
2018-09-23T06:09:45.137Z,12.5
2018-09-23T06:10:45.130Z,12.46
2018-09-23T06:11:45.069Z,12.48
2018-09-23T06:12:45.143Z,12.61
2018-09-23T06:13:45.063Z,12.66
2018-09-23T06:14:45.092Z,12.55
2018-09-23T06:15:45.127Z,12.74
2018-09-23T06:16:45.070Z,12.89
2018-09-23T06:17:45.105Z,12.71
2018-09-23T06:18:45.087Z,12.82
2018-09-23T06:19:45.104Z,12.88
2018-09-23T06:20:45.154Z,12.78
2018-09-23T06:21:45.072Z,12.7
2018-09-23T06:22:45.080Z,12.65
2018-09-23T06:23:45.228Z,12.71
2018-09-23T06:24:45.085Z,12.71
2018-09-23T06:25:45.166Z,12.62
2018-09-23T06:26:45.232Z,12.64
2018-09-23T06:27:45.087Z,12.69
2018-09-23T06:28:45.156Z,12.77
2018-09-23T06:29:45.052Z,12.98
2018-09-23T06:30:45.091Z,12.84
2018-09-23T06:31:45.085Z,13.06
2018-09-23T06:32:45.141Z,13.13
2018-09-23T06:33:45.167Z,12.95
2018-09-23T06:34:45.304Z,13.07
2018-09-23T06:35:45.336Z,12.98
2018-09-23T06:36:45.187Z,13.26
2018-09-23T06:37:45.227Z,13.17
2018-09-23T06:38:45.704Z,13.14
2018-09-23T06:39:45.011Z,13.36
2018-09-23T06:40:45.485Z,13.32
2018-09-23T06:41:45.149Z,13.26
2018-09-23T06:42:45.038Z,13.29
2018-09-23T06:43:47.282Z,13.35
2018-09-23T06:44:45.121Z,13.43
2018-09-23T06:45:45.953Z,13.39
2018-09-23T06:46:45.016Z,13.4
2018-09-23T06:47:45.219Z,13.41
2018-09-23T06:48:45.161Z,13.32
2018-09-23T06:49:45.055Z,13.41
2018-09-23T06:50:45.029Z,13.36
2018-09-23T06:51:45.149Z,13.58
2018-09-23T06:52:45.108Z,13.46
2018-09-23T06:53:45.190Z,13.51
2018-09-23T06:54:45.140Z,13.42
2018-09-23T06:55:45.779Z,13.67
2018-09-23T06:56:45.290Z,13.69
2018-09-23T06:57:45.005Z,13.66
2018-09-23T06:58:45.065Z,13.54
2018-09-23T06:59:45.012Z,13.57
2018-09-23T07:00:45.186Z,13.69
2018-09-23T07:01:45.151Z,13.65
2018-09-23T07:02:45.150Z,13.57
2018-09-23T07:03:45.157Z,13.77
2018-09-23T07:04:45.748Z,13.77
2018-09-23T07:05:45.184Z,13.8
2018-09-23T07:06:45.004Z,13.69
2018-09-23T07:07:45.189Z,13.8
2018-09-23T07:08:45.287Z,13.76
2018-09-23T07:09:45.293Z,13.88
2018-09-23T07:10:45.216Z,13.85
2018-09-23T07:11:45.009Z,13.83
2018-09-23T07:12:45.222Z,13.84
2018-09-23T07:13:45.149Z,13.85
2018-09-23T07:14:45.438Z,13.88
2018-09-23T07:15:45.037Z,13.97
2018-09-23T07:16:45.146Z,13.97
2018-09-23T07:17:45.201Z,13.95
2018-09-23T07:18:45.025Z,14.12
2018-09-23T07:19:45.168Z,14
2018-09-23T07:20:45.095Z,13.96
2018-09-23T07:21:45.043Z,14.08
2018-09-23T07:22:45.018Z,14.02
2018-09-23T07:23:45.663Z,13.97
2018-09-23T07:24:45.030Z,14.02
2018-09-23T07:25:45.117Z,14.05
2018-09-23T07:26:44.973Z,13.98
2018-09-23T07:27:45.347Z,14.01
2018-09-23T07:28:45.057Z,13.97
2018-09-23T07:29:44.995Z,14.07
2018-09-23T07:30:45.077Z,14.09
2018-09-23T07:31:45.070Z,14.09
2018-09-23T07:32:45.023Z,14.17
2018-09-23T07:33:45.066Z,14.22
2018-09-23T07:34:44.962Z,14.09
2018-09-23T07:35:45.072Z,14.18
2018-09-23T07:36:45.517Z,14.24
2018-09-23T07:37:45.028Z,14.28
2018-09-23T07:38:45.105Z,14.24
2018-09-23T07:39:45.252Z,14.4
2018-09-23T07:40:44.967Z,14.31
2018-09-23T07:41:44.936Z,14.38
2018-09-23T07:42:45.087Z,14.46
2018-09-23T07:43:45.023Z,14.47
2018-09-23T07:44:45.164Z,14.38
2018-09-23T07:45:45.048Z,14.35
2018-09-23T07:46:45.076Z,14.38
2018-09-23T07:47:45.224Z,14.44
2018-09-23T07:48:45.061Z,14.43
2018-09-23T07:49:45.167Z,14.52
2018-09-23T07:50:45.424Z,14.51
2018-09-23T07:51:45.102Z,14.54
2018-09-23T07:52:45.056Z,14.63
2018-09-23T07:53:45.103Z,14.81
2018-09-23T07:54:45.470Z,14.8
2018-09-23T07:55:45.358Z,14.91
2018-09-23T07:56:45.119Z,14.88
2018-09-23T07:57:45.181Z,14.97
2018-09-23T07:58:46.155Z,15.04
2018-09-23T07:59:45.003Z,14.93
2018-09-23T08:00:45.073Z,15.15
2018-09-23T08:01:46.143Z,15.17
2018-09-23T08:02:45.127Z,15.21
2018-09-23T08:03:45.578Z,15.26
2018-09-23T08:04:44.953Z,15.29
2018-09-23T08:05:44.932Z,15.25
2018-09-23T08:06:46.138Z,15.32
2018-09-23T08:07:45.096Z,15.35
2018-09-23T08:08:45.063Z,15.38
2018-09-23T08:09:44.998Z,15.46
2018-09-23T08:10:45.172Z,15.42
2018-09-23T08:11:45.600Z,15.44
2018-09-23T08:12:46.466Z,15.53
2018-09-23T08:13:46.381Z,15.43
2018-09-23T08:14:48.754Z,15.6
2018-09-23T08:15:45.032Z,15.61
2018-09-23T08:16:45.101Z,15.61
2018-09-23T08:17:44.935Z,15.7
2018-09-23T08:18:45.273Z,15.65
2018-09-23T08:19:46.887Z,15.84
2018-09-23T08:20:45.280Z,15.82
2018-09-23T08:21:45.067Z,15.72
2018-09-23T08:22:45.023Z,15.9
2018-09-23T08:23:45.174Z,15.83
2018-09-23T08:24:44.919Z,15.89
2018-09-23T08:25:45.708Z,15.88
2018-09-23T08:26:44.923Z,15.84
2018-09-23T08:27:44.976Z,15.91
2018-09-23T08:28:44.947Z,15.95
2018-09-23T08:29:44.870Z,15.91
2018-09-23T08:30:44.914Z,15.8
2018-09-23T08:31:45.539Z,15.97
2018-09-23T08:32:45.329Z,15.99
2018-09-23T08:33:51.981Z,15.89
2018-09-23T08:34:45.160Z,15.79
2018-09-23T08:35:44.920Z,15.84
2018-09-23T08:36:45.071Z,15.96
2018-09-23T08:37:45.081Z,15.82
2018-09-23T08:38:44.880Z,15.86
2018-09-23T08:39:45.441Z,15.95
2018-09-23T08:40:44.929Z,15.91
2018-09-23T08:41:44.914Z,15.96
2018-09-23T08:42:45.111Z,16
2018-09-23T08:43:45.185Z,15.99
2018-09-23T08:44:44.970Z,15.96
2018-09-23T08:45:45.053Z,15.87
2018-09-23T08:46:44.855Z,15.91
2018-09-23T08:47:44.982Z,15.83
2018-09-23T08:48:44.812Z,16.12
2018-09-23T08:49:44.864Z,16.04
2018-09-23T08:50:44.894Z,16.08
2018-09-23T08:51:45.173Z,16.07
2018-09-23T08:52:44.875Z,16.03
2018-09-23T08:53:44.882Z,16.05
2018-09-23T08:54:44.890Z,16.01
2018-09-23T08:55:44.860Z,16.03
2018-09-23T08:56:44.931Z,16.04
2018-09-23T08:57:45.350Z,16.14
2018-09-23T08:58:45.013Z,16.13
2018-09-23T08:59:44.855Z,16.17
2018-09-23T09:00:44.894Z,16.18
2018-09-23T09:01:44.852Z,16.15
2018-09-23T09:02:44.889Z,16.14
2018-09-23T09:03:45.443Z,16.12
2018-09-23T09:04:44.877Z,16.15
2018-09-23T09:05:44.897Z,16.16
2018-09-23T09:06:44.901Z,16.19
2018-09-23T09:07:44.879Z,16.14
2018-09-23T09:08:44.903Z,16.2
2018-09-23T09:09:44.852Z,16.17
2018-09-23T09:10:45.126Z,16.22
2018-09-23T09:11:45.346Z,16.25
2018-09-23T09:12:44.838Z,16.23
2018-09-23T09:13:44.868Z,16.27
2018-09-23T09:14:44.846Z,16.31
2018-09-23T09:15:50.377Z,16.31
2018-09-23T09:16:45.163Z,16.28
2018-09-23T09:17:45.045Z,16.21
2018-09-23T09:18:46.416Z,16.28
2018-09-23T09:19:44.834Z,16.29
2018-09-23T09:20:46.244Z,16.22
2018-09-23T09:21:45.106Z,16.29
2018-09-23T09:22:44.852Z,16.31
2018-09-23T09:23:45.095Z,16.32
2018-09-23T09:24:44.893Z,16.37
2018-09-23T09:25:44.866Z,16.37
2018-09-23T09:26:45.834Z,16.35
2018-09-23T09:27:45.085Z,16.38
2018-09-23T09:28:44.890Z,16.4
2018-09-23T09:29:45.204Z,16.4
2018-09-23T09:30:44.987Z,16.36
2018-09-23T09:31:45.000Z,16.33
2018-09-23T09:32:45.003Z,16.35
2018-09-23T09:33:45.235Z,16.37
2018-09-23T09:34:44.969Z,16.31
2018-09-23T09:35:45.153Z,16.33
2018-09-23T09:36:45.123Z,16.37
2018-09-23T09:37:44.836Z,16.37
2018-09-23T09:38:44.997Z,16.32
2018-09-23T09:39:44.963Z,16.38
2018-09-23T09:40:45.067Z,16.37
2018-09-23T09:41:44.971Z,16.36
2018-09-23T09:42:44.890Z,16.32
2018-09-23T09:43:45.689Z,16.35
2018-09-23T09:44:45.299Z,16.41
2018-09-23T09:45:45.195Z,16.4
2018-09-23T09:46:45.003Z,16.45
2018-09-23T09:47:44.995Z,16.42
2018-09-23T09:48:45.200Z,16.46
2018-09-23T09:49:45.072Z,16.47
2018-09-23T09:50:45.544Z,16.33
2018-09-23T09:51:45.337Z,16.49
2018-09-23T09:52:45.052Z,16.51
2018-09-23T09:53:44.835Z,16.54
2018-09-23T09:54:44.942Z,16.53
2018-09-23T09:55:45.169Z,16.51
2018-09-23T09:56:44.961Z,16.55
2018-09-23T09:57:45.080Z,16.59
2018-09-23T09:58:45.482Z,16.6
2018-09-23T09:59:45.020Z,16.55
2018-09-23T10:00:45.263Z,16.61
2018-09-23T10:01:44.854Z,16.6
2018-09-23T10:02:44.917Z,16.65
2018-09-23T10:03:45.087Z,16.65
2018-09-23T10:04:45.129Z,16.62
2018-09-23T10:05:44.950Z,16.67
2018-09-23T10:06:44.936Z,16.71
2018-09-23T10:07:44.816Z,16.7
2018-09-23T10:08:45.084Z,16.78
2018-09-23T10:09:45.565Z,16.75
2018-09-23T10:10:44.861Z,16.81
2018-09-23T10:11:45.065Z,16.87
2018-09-23T10:12:44.856Z,16.87
2018-09-23T10:13:44.804Z,16.86
2018-09-23T10:14:44.986Z,16.92
2018-09-23T10:15:44.792Z,16.93
2018-09-23T10:16:44.760Z,16.83
2018-09-23T10:17:45.023Z,16.98
2018-09-23T10:18:44.733Z,16.98
2018-09-23T10:19:45.062Z,16.89
2018-09-23T10:20:45.045Z,16.89
2018-09-23T10:21:44.794Z,16.9
2018-09-23T10:22:46.080Z,16.93
2018-09-23T10:23:46.765Z,16.9
2018-09-23T10:24:44.758Z,16.91
2018-09-23T10:25:44.826Z,16.94
2018-09-23T10:26:44.744Z,16.96
2018-09-23T10:27:44.802Z,16.93
2018-09-23T10:28:44.983Z,16.91
2018-09-23T10:29:45.416Z,16.9
2018-09-23T10:30:44.733Z,16.96
2018-09-23T10:31:45.246Z,16.92
2018-09-23T10:32:44.924Z,16.94
2018-09-23T10:33:44.794Z,16.98
2018-09-23T10:34:44.882Z,16.94
2018-09-23T10:35:45.964Z,16.98
2018-09-23T10:36:44.921Z,16.98
2018-09-23T10:37:44.879Z,16.95
2018-09-23T10:38:44.858Z,16.97
2018-09-23T10:39:44.754Z,16.96
2018-09-23T10:40:44.815Z,17.04
2018-09-23T10:41:45.895Z,17.06
2018-09-23T10:42:44.890Z,17.09
2018-09-23T10:43:44.750Z,17.16
2018-09-23T10:44:44.768Z,17.05
2018-09-23T10:45:45.309Z,17.03
2018-09-23T10:46:44.817Z,17.02
2018-09-23T10:47:44.882Z,17.03
2018-09-23T10:48:44.825Z,17.08
2018-09-23T10:49:44.875Z,17.1
2018-09-23T10:50:44.928Z,17.08
2018-09-23T10:51:44.816Z,17.14
2018-09-23T10:52:44.855Z,17.09
2018-09-23T10:53:44.679Z,17.13
2018-09-23T10:54:44.769Z,17.1
2018-09-23T10:55:45.328Z,17.1
2018-09-23T10:56:44.741Z,17.08
2018-09-23T10:57:44.798Z,17.16
2018-09-23T10:58:44.797Z,17.17
2018-09-23T10:59:45.920Z,17.12
2018-09-23T11:00:44.764Z,17.16
2018-09-23T11:01:45.221Z,17.11
2018-09-23T11:02:48.319Z,17.15
2018-09-23T11:03:45.099Z,17.14
2018-09-23T11:04:44.756Z,17.14
2018-09-23T11:05:44.719Z,17.12
2018-09-23T11:06:44.854Z,17.21
2018-09-23T11:07:44.717Z,17.23
2018-09-23T11:08:44.848Z,17.21
2018-09-23T11:09:45.307Z,17.21
2018-09-23T11:10:44.694Z,17.16
2018-09-23T11:11:45.309Z,17.2
2018-09-23T11:12:44.714Z,17.24
2018-09-23T11:13:44.709Z,17.24
2018-09-23T11:14:44.830Z,17.21
2018-09-23T11:15:44.823Z,17.27
2018-09-23T11:16:45.015Z,17.27
2018-09-23T11:17:44.703Z,17.18
2018-09-23T11:18:44.848Z,17.2
2018-09-23T11:19:44.748Z,17.23
2018-09-23T11:20:44.700Z,17.22
2018-09-23T11:21:44.977Z,17.2
2018-09-23T11:22:44.859Z,17.19
2018-09-23T11:23:44.722Z,17.26
2018-09-23T11:24:45.277Z,17.29
2018-09-23T11:25:44.692Z,17.18
2018-09-23T11:26:44.704Z,17.16
2018-09-23T11:27:44.910Z,17.21
2018-09-23T11:28:44.718Z,17.12
2018-09-23T11:29:44.723Z,17.01
2018-09-23T11:30:45.217Z,17.13
2018-09-23T11:31:44.731Z,17.16
2018-09-23T11:32:44.682Z,17.22
2018-09-23T11:33:44.854Z,17.21
2018-09-23T11:34:45.032Z,17.23
2018-09-23T11:35:44.660Z,17.14
2018-09-23T11:36:44.839Z,17.08
2018-09-23T11:37:44.677Z,17.15
2018-09-23T11:38:44.681Z,17.17
2018-09-23T11:39:46.216Z,17.2
2018-09-23T11:40:44.661Z,17.17
2018-09-23T11:41:44.653Z,17.19
2018-09-23T11:42:44.884Z,17.2
2018-09-23T11:43:44.754Z,17.26
2018-09-23T11:44:44.936Z,17.2
2018-09-23T11:45:44.725Z,17.28
2018-09-23T11:46:44.675Z,17.33
2018-09-23T11:47:44.835Z,17.28
2018-09-23T11:48:44.754Z,17.32
2018-09-23T11:49:44.952Z,17.34
2018-09-23T11:50:44.852Z,17.35
2018-09-23T11:51:44.845Z,17.34
2018-09-23T11:52:44.681Z,17.43
2018-09-23T11:53:44.761Z,17.49
2018-09-23T11:54:44.819Z,17.5
2018-09-23T11:55:44.777Z,17.48
2018-09-23T11:56:45.062Z,17.48
2018-09-23T11:57:44.753Z,17.56
2018-09-23T11:58:45.132Z,17.6
2018-09-23T11:59:44.968Z,17.63
2018-09-23T12:00:44.875Z,17.63
2018-09-23T12:01:44.761Z,17.64
2018-09-23T12:02:44.958Z,17.69
2018-09-23T12:03:44.686Z,17.7
2018-09-23T12:04:44.658Z,17.72
2018-09-23T12:05:44.834Z,17.73
2018-09-23T12:06:44.853Z,17.76
2018-09-23T12:07:44.821Z,17.62
2018-09-23T12:08:44.737Z,17.6
2018-09-23T12:09:44.803Z,17.62
2018-09-23T12:10:44.794Z,17.52
2018-09-23T12:11:45.299Z,17.52
2018-09-23T12:12:44.747Z,17.55
2018-09-23T12:13:44.779Z,17.6
2018-09-23T12:14:45.179Z,17.59
2018-09-23T12:15:45.671Z,17.54
2018-09-23T12:16:44.642Z,17.45
2018-09-23T12:17:44.679Z,17.43
2018-09-23T12:18:44.777Z,17.45
2018-09-23T12:19:44.797Z,17.48
2018-09-23T12:20:45.366Z,17.55
2018-09-23T12:21:44.590Z,17.6
2018-09-23T12:22:44.831Z,17.56
2018-09-23T12:23:44.687Z,17.45
2018-09-23T12:24:44.625Z,17.47
2018-09-23T12:25:45.392Z,17.48
2018-09-23T12:26:44.732Z,17.38
2018-09-23T12:27:44.996Z,17.34
2018-09-23T12:28:44.624Z,17.33
2018-09-23T12:29:45.052Z,17.41
2018-09-23T12:30:44.623Z,17.46
2018-09-23T12:31:44.605Z,17.35
2018-09-23T12:32:44.625Z,17.36
2018-09-23T12:33:44.632Z,17.5
2018-09-23T12:34:44.726Z,17.51
2018-09-23T12:35:44.955Z,17.55
2018-09-23T12:36:44.665Z,17.42
2018-09-23T12:37:44.684Z,17.4
2018-09-23T12:38:44.797Z,17.17
2018-09-23T12:39:45.320Z,17.23
2018-09-23T12:40:44.639Z,17.31
2018-09-23T12:41:44.800Z,17.27
2018-09-23T12:42:44.590Z,17.18
2018-09-23T12:43:44.632Z,17.18
2018-09-23T12:44:44.667Z,17.18
2018-09-23T12:45:44.629Z,17.08
2018-09-23T12:46:44.605Z,17.09
2018-09-23T12:47:44.642Z,17.24
2018-09-23T12:48:44.928Z,17.29
2018-09-23T12:49:44.723Z,17.07
2018-09-23T12:50:45.263Z,16.95
2018-09-23T12:51:44.615Z,17.06
2018-09-23T12:52:44.591Z,17.1
2018-09-23T12:53:44.613Z,17.05
2018-09-23T12:54:44.576Z,17.11
2018-09-23T12:55:44.720Z,17.3